Terminal Aerodrome Forecast
Issued by NWS

Home | Current Version | Previous Version | Text Only | Print | Product List | Glossary On
Versions: 1 2 3 4 5 6 7 8 9 10 11 12 13 14
829
FTUS41 KPHI 061143
TAFMIV
TAF
KMIV 061143Z 0612/0712 06005KT P6SM OVC200
     FM061500 09009KT P6SM SCT030 OVC100
     FM061800 10012KT P6SM BKN025 OVC060
     FM061900 09010KT 5SM -RA BR OVC015
     FM062100 07012KT 4SM -RA BR OVC009
     FM070300 03010KT 3SM -RADZ BR OVC004=

USA.gov is the U.S. government's official web portal to all federal, state and local government web resources and services.